sensor_id;sensor_type;location;lat;lon;timestamp;temperature;humidity
3713;DHT22;1872;51.406;6.856;2023-08-31T00:01:43;12.70;99.90
3713;DHT22;1872;51.406;6.856;2023-08-31T00:04:09;12.80;99.90
3713;DHT22;1872;51.406;6.856;2023-08-31T00:06:40;12.70;99.90
3713;DHT22;1872;51.406;6.856;2023-08-31T00:09:06;12.70;99.90
3713;DHT22;1872;51.406;6.856;2023-08-31T00:11:35;12.70;99.90
3713;DHT22;1872;51.406;6.856;2023-08-31T00:14:02;12.70;99.90
3713;DHT22;1872;51.406;6.856;2023-08-31T00:16:28;12.60;99.90
3713;DHT22;1872;51.406;6.856;2023-08-31T00:18:56;12.60;99.90
3713;DHT22;1872;51.406;6.856;2023-08-31T00:21:22;12.60;99.90
3713;DHT22;1872;51.406;6.856;2023-08-31T00:23:48;12.50;99.90
3713;DHT22;1872;51.406;6.856;2023-08-31T00:26:14;12.50;99.90
3713;DHT22;1872;51.406;6.856;2023-08-31T00:28:40;12.50;99.90
3713;DHT22;1872;51.406;6.856;2023-08-31T00:31:09;12.60;99.90
3713;DHT22;1872;51.406;6.856;2023-08-31T00:33:37;12.60;99.90
3713;DHT22;1872;51.406;6.856;2023-08-31T00:36:03;12.60;99.90
3713;DHT22;1872;51.406;6.856;2023-08-31T00:38:32;12.60;99.90
3713;DHT22;1872;51.406;6.856;2023-08-31T00:40:58;12.60;99.90
3713;DHT22;1872;51.406;6.856;2023-08-31T00:43:23;12.60;99.90
3713;DHT22;1872;51.406;6.856;2023-08-31T00:45:51;12.60;99.90
3713;DHT22;1872;51.406;6.856;2023-08-31T00:48:18;12.60;99.90
3713;DHT22;1872;51.406;6.856;2023-08-31T00:50:48;12.50;99.90
3713;DHT22;1872;51.406;6.856;2023-08-31T00:53:15;12.50;99.90
3713;DHT22;1872;51.406;6.856;2023-08-31T00:55:42;12.50;99.90
3713;DHT22;1872;51.406;6.856;2023-08-31T00:58:09;12.50;99.90
3713;DHT22;1872;51.406;6.856;2023-08-31T01:00:53;12.50;99.90
3713;DHT22;1872;51.406;6.856;2023-08-31T01:12:15;12.30;99.90
3713;DHT22;1872;51.406;6.856;2023-08-31T01:14:47;12.30;99.90
3713;DHT22;1872;51.406;6.856;2023-08-31T01:17:15;12.30;99.90
3713;DHT22;1872;51.406;6.856;2023-08-31T01:19:48;12.20;99.90
3713;DHT22;1872;51.406;6.856;2023-08-31T01:24:53;12.20;99.90
3713;DHT22;1872;51.406;6.856;2023-08-31T01:27:19;12.20;99.90
3713;DHT22;1872;51.406;6.856;2023-08-31T01:29:46;12.10;99.90
3713;DHT22;1872;51.406;6.856;2023-08-31T01:32:12;12.10;99.90
3713;DHT22;1872;51.406;6.856;2023-08-31T01:34:38;12.10;99.90
3713;DHT22;1872;51.406;6.856;2023-08-31T01:37:12;12.00;99.90
3713;DHT22;1872;51.406;6.856;2023-08-31T01:40:01;12.00;99.90
3713;DHT22;1872;51.406;6.856;2023-08-31T01:42:29;12.00;99.90
3713;DHT22;1872;51.406;6.856;2023-08-31T01:44:57;12.00;99.90
3713;DHT22;1872;51.406;6.856;2023-08-31T01:47:25;12.00;99.90
3713;DHT22;1872;51.406;6.856;2023-08-31T01:49:51;11.90;99.90
3713;DHT22;1872;51.406;6.856;2023-08-31T01:52:17;11.90;99.90
3713;DHT22;1872;51.406;6.856;2023-08-31T01:54:43;11.90;99.90
3713;DHT22;1872;51.406;6.856;2023-08-31T01:57:08;11.90;99.90
3713;DHT22;1872;51.406;6.856;2023-08-31T01:59:34;11.80;99.90
3713;DHT22;1872;51.406;6.856;2023-08-31T02:02:01;11.80;99.90
3713;DHT22;1872;51.406;6.856;2023-08-31T02:04:26;11.80;99.90
3713;DHT22;1872;51.406;6.856;2023-08-31T02:06:52;11.80;99.90
3713;DHT22;1872;51.406;6.856;2023-08-31T02:09:18;11.80;99.90
3713;DHT22;1872;51.406;6.856;2023-08-31T02:11:43;11.80;99.90
3713;DHT22;1872;51.406;6.856;2023-08-31T02:14:09;11.80;99.90
3713;DHT22;1872;51.406;6.856;2023-08-31T02:16:35;11.80;99.90
3713;DHT22;1872;51.406;6.856;2023-08-31T02:19:00;11.80;99.90
3713;DHT22;1872;51.406;6.856;2023-08-31T02:21:26;11.80;99.90
3713;DHT22;1872;51.406;6.856;2023-08-31T02:23:52;11.80;99.90
3713;DHT22;1872;51.406;6.856;2023-08-31T02:26:17;11.80;99.90
3713;DHT22;1872;51.406;6.856;2023-08-31T02:28:43;11.80;99.90
3713;DHT22;1872;51.406;6.856;2023-08-31T02:31:10;11.80;99.90
3713;DHT22;1872;51.406;6.856;2023-08-31T02:33:37;11.80;99.90
3713;DHT22;1872;51.406;6.856;2023-08-31T02:36:03;11.80;99.90
3713;DHT22;1872;51.406;6.856;2023-08-31T02:38:28;11.80;99.90
3713;DHT22;1872;51.406;6.856;2023-08-31T02:40:54;11.70;99.90
3713;DHT22;1872;51.406;6.856;2023-08-31T02:43:20;11.70;99.90
3713;DHT22;1872;51.406;6.856;2023-08-31T02:45:45;11.70;99.90
3713;DHT22;1872;51.406;6.856;2023-08-31T02:48:13;11.70;99.90
3713;DHT22;1872;51.406;6.856;2023-08-31T02:50:38;11.70;99.90
3713;DHT22;1872;51.406;6.856;2023-08-31T02:53:05;11.70;99.90
3713;DHT22;1872;51.406;6.856;2023-08-31T02:55:34;11.70;99.90
3713;DHT22;1872;51.406;6.856;2023-08-31T02:57:59;11.70;99.90
3713;DHT22;1872;51.406;6.856;2023-08-31T03:00:25;11.70;99.90
3713;DHT22;1872;51.406;6.856;2023-08-31T03:02:51;11.70;99.90
3713;DHT22;1872;51.406;6.856;2023-08-31T03:05:18;11.70;99.90
3713;DHT22;1872;51.406;6.856;2023-08-31T03:07:44;11.70;99.90
3713;DHT22;1872;51.406;6.856;2023-08-31T03:10:10;11.70;99.90
3713;DHT22;1872;51.406;6.856;2023-08-31T03:12:38;11.70;99.90
3713;DHT22;1872;51.406;6.856;2023-08-31T03:15:05;11.70;99.90
3713;DHT22;1872;51.406;6.856;2023-08-31T03:17:31;11.70;99.90
3713;DHT22;1872;51.406;6.856;2023-08-31T03:19:57;11.70;99.90
3713;DHT22;1872;51.406;6.856;2023-08-31T03:22:23;11.70;99.90
3713;DHT22;1872;51.406;6.856;2023-08-31T03:24:48;11.70;99.90
3713;DHT22;1872;51.406;6.856;2023-08-31T03:27:14;11.60;99.90
3713;DHT22;1872;51.406;6.856;2023-08-31T03:29:41;11.60;99.90
3713;DHT22;1872;51.406;6.856;2023-08-31T03:32:07;11.60;99.90
3713;DHT22;1872;51.406;6.856;2023-08-31T03:34:32;11.60;99.90
3713;DHT22;1872;51.406;6.856;2023-08-31T03:36:59;11.60;99.90
3713;DHT22;1872;51.406;6.856;2023-08-31T03:39:25;11.60;99.90
3713;DHT22;1872;51.406;6.856;2023-08-31T03:41:51;11.60;99.90
3713;DHT22;1872;51.406;6.856;2023-08-31T03:44:17;11.60;99.90
3713;DHT22;1872;51.406;6.856;2023-08-31T03:46:42;11.60;99.90
3713;DHT22;1872;51.406;6.856;2023-08-31T03:49:09;11.70;99.90
3713;DHT22;1872;51.406;6.856;2023-08-31T03:51:34;11.60;99.90
3713;DHT22;1872;51.406;6.856;2023-08-31T03:54:00;11.60;99.90
3713;DHT22;1872;51.406;6.856;2023-08-31T03:56:26;11.60;99.90
3713;DHT22;1872;51.406;6.856;2023-08-31T03:58:53;11.60;99.90
3713;DHT22;1872;51.406;6.856;2023-08-31T04:01:18;11.60;99.90
3713;DHT22;1872;51.406;6.856;2023-08-31T04:03:45;11.60;99.90
3713;DHT22;1872;51.406;6.856;2023-08-31T04:06:11;11.50;99.90
3713;DHT22;1872;51.406;6.856;2023-08-31T04:08:37;11.50;99.90
3713;DHT22;1872;51.406;6.856;2023-08-31T04:11:02;11.50;99.90
3713;DHT22;1872;51.406;6.856;2023-08-31T04:13:28;11.50;99.90
3713;DHT22;1872;51.406;6.856;2023-08-31T04:15:56;11.50;99.90
3713;DHT22;1872;51.406;6.856;2023-08-31T04:18:21;11.40;99.90
3713;DHT22;1872;51.406;6.856;2023-08-31T04:20:52;11.40;99.90
3713;DHT22;1872;51.406;6.856;2023-08-31T04:23:21;11.40;99.90
3713;DHT22;1872;51.406;6.856;2023-08-31T04:25:47;11.40;99.90
3713;DHT22;1872;51.406;6.856;2023-08-31T04:28:13;11.40;99.90
3713;DHT22;1872;51.406;6.856;2023-08-31T04:30:40;11.40;99.90
3713;DHT22;1872;51.406;6.856;2023-08-31T04:33:06;11.40;99.90
3713;DHT22;1872;51.406;6.856;2023-08-31T04:35:32;11.40;99.90
3713;DHT22;1872;51.406;6.856;2023-08-31T04:37:58;11.40;99.90
3713;DHT22;1872;51.406;6.856;2023-08-31T04:40:24;11.40;99.90
3713;DHT22;1872;51.406;6.856;2023-08-31T04:42:50;11.30;99.90
3713;DHT22;1872;51.406;6.856;2023-08-31T04:45:16;11.30;99.90
3713;DHT22;1872;51.406;6.856;2023-08-31T04:47:42;11.30;99.90
3713;DHT22;1872;51.406;6.856;2023-08-31T04:50:08;11.30;99.90
3713;DHT22;1872;51.406;6.856;2023-08-31T04:52:34;11.30;99.90
3713;DHT22;1872;51.406;6.856;2023-08-31T04:55:01;11.30;99.90
3713;DHT22;1872;51.406;6.856;2023-08-31T04:57:27;11.30;99.90
3713;DHT22;1872;51.406;6.856;2023-08-31T04:59:53;11.30;99.90
3713;DHT22;1872;51.406;6.856;2023-08-31T05:02:19;11.30;99.90
3713;DHT22;1872;51.406;6.856;2023-08-31T05:04:45;11.30;99.90
3713;DHT22;1872;51.406;6.856;2023-08-31T05:07:10;11.30;99.90
3713;DHT22;1872;51.406;6.856;2023-08-31T05:09:36;11.40;99.90
3713;DHT22;1872;51.406;6.856;2023-08-31T05:12:02;11.40;99.90
3713;DHT22;1872;51.406;6.856;2023-08-31T05:14:28;11.40;99.90
3713;DHT22;1872;51.406;6.856;2023-08-31T05:16:54;11.50;99.90
3713;DHT22;1872;51.406;6.856;2023-08-31T05:19:20;11.50;99.90
3713;DHT22;1872;51.406;6.856;2023-08-31T05:21:46;11.50;99.90
3713;DHT22;1872;51.406;6.856;2023-08-31T05:24:12;11.50;99.90
3713;DHT22;1872;51.406;6.856;2023-08-31T05:26:39;11.50;99.90
3713;DHT22;1872;51.406;6.856;2023-08-31T05:29:05;11.60;99.90
3713;DHT22;1872;51.406;6.856;2023-08-31T05:31:31;11.60;99.90
3713;DHT22;1872;51.406;6.856;2023-08-31T05:33:56;11.60;99.90
3713;DHT22;1872;51.406;6.856;2023-08-31T05:36:22;11.60;99.90
3713;DHT22;1872;51.406;6.856;2023-08-31T05:38:48;11.50;99.90
3713;DHT22;1872;51.406;6.856;2023-08-31T05:41:14;11.50;99.90
3713;DHT22;1872;51.406;6.856;2023-08-31T05:43:39;11.60;99.90
3713;DHT22;1872;51.406;6.856;2023-08-31T05:46:06;11.60;99.90
3713;DHT22;1872;51.406;6.856;2023-08-31T05:48:33;11.60;99.90
3713;DHT22;1872;51.406;6.856;2023-08-31T05:50:59;11.60;99.90
3713;DHT22;1872;51.406;6.856;2023-08-31T05:53:25;11.60;99.90
3713;DHT22;1872;51.406;6.856;2023-08-31T05:55:50;11.70;99.90
3713;DHT22;1872;51.406;6.856;2023-08-31T05:58:16;11.70;99.90
3713;DHT22;1872;51.406;6.856;2023-08-31T06:00:42;11.70;99.90
3713;DHT22;1872;51.406;6.856;2023-08-31T06:03:07;11.80;99.90
3713;DHT22;1872;51.406;6.856;2023-08-31T06:05:33;11.80;99.90
3713;DHT22;1872;51.406;6.856;2023-08-31T06:07:59;11.90;99.90
3713;DHT22;1872;51.406;6.856;2023-08-31T06:10:25;11.90;99.90
3713;DHT22;1872;51.406;6.856;2023-08-31T06:12:50;12.00;99.90
3713;DHT22;1872;51.406;6.856;2023-08-31T06:15:17;12.00;99.90
3713;DHT22;1872;51.406;6.856;2023-08-31T06:17:43;12.10;99.90
3713;DHT22;1872;51.406;6.856;2023-08-31T06:20:09;12.20;99.90
3713;DHT22;1872;51.406;6.856;2023-08-31T06:22:35;12.30;99.90
3713;DHT22;1872;51.406;6.856;2023-08-31T06:25:01;12.40;99.90
3713;DHT22;1872;51.406;6.856;2023-08-31T06:27:29;12.50;99.90
3713;DHT22;1872;51.406;6.856;2023-08-31T06:29:55;12.70;99.90
3713;DHT22;1872;51.406;6.856;2023-08-31T06:32:21;12.80;99.90
3713;DHT22;1872;51.406;6.856;2023-08-31T06:34:48;13.00;99.90
3713;DHT22;1872;51.406;6.856;2023-08-31T06:37:14;13.20;99.90
3713;DHT22;1872;51.406;6.856;2023-08-31T06:39:40;13.40;99.90
3713;DHT22;1872;51.406;6.856;2023-08-31T06:42:06;13.70;99.90
3713;DHT22;1872;51.406;6.856;2023-08-31T06:44:32;14.00;99.90
3713;DHT22;1872;51.406;6.856;2023-08-31T06:46:57;14.30;99.90
3713;DHT22;1872;51.406;6.856;2023-08-31T06:49:23;14.60;99.90
3713;DHT22;1872;51.406;6.856;2023-08-31T06:51:49;14.80;99.90
3713;DHT22;1872;51.406;6.856;2023-08-31T06:54:15;15.20;99.90
3713;DHT22;1872;51.406;6.856;2023-08-31T06:56:40;15.40;99.90
3713;DHT22;1872;51.406;6.856;2023-08-31T06:59:06;15.70;99.90
3713;DHT22;1872;51.406;6.856;2023-08-31T07:01:32;15.90;99.90
3713;DHT22;1872;51.406;6.856;2023-08-31T07:04:00;16.10;99.90
3713;DHT22;1872;51.406;6.856;2023-08-31T07:06:26;16.30;99.90
3713;DHT22;1872;51.406;6.856;2023-08-31T07:08:52;16.40;99.90
3713;DHT22;1872;51.406;6.856;2023-08-31T07:11:18;16.50;99.90
3713;DHT22;1872;51.406;6.856;2023-08-31T07:13:44;16.60;99.90
3713;DHT22;1872;51.406;6.856;2023-08-31T07:16:09;16.70;99.90
3713;DHT22;1872;51.406;6.856;2023-08-31T07:18:36;16.80;99.90
3713;DHT22;1872;51.406;6.856;2023-08-31T07:21:01;17.10;99.90
3713;DHT22;1872;51.406;6.856;2023-08-31T07:23:29;17.20;99.90
3713;DHT22;1872;51.406;6.856;2023-08-31T07:25:57;17.40;99.90
3713;DHT22;1872;51.406;6.856;2023-08-31T07:28:27;17.50;99.90
3713;DHT22;1872;51.406;6.856;2023-08-31T07:31:06;17.60;99.90
3713;DHT22;1872;51.406;6.856;2023-08-31T07:33:32;17.80;99.90
3713;DHT22;1872;51.406;6.856;2023-08-31T07:35:58;18.00;99.90
3713;DHT22;1872;51.406;6.856;2023-08-31T07:38:25;18.10;99.90
3713;DHT22;1872;51.406;6.856;2023-08-31T07:40:51;18.20;99.90
3713;DHT22;1872;51.406;6.856;2023-08-31T07:43:17;18.30;99.90
3713;DHT22;1872;51.406;6.856;2023-08-31T07:45:43;18.30;99.90
3713;DHT22;1872;51.406;6.856;2023-08-31T07:48:08;18.40;99.90
3713;DHT22;1872;51.406;6.856;2023-08-31T07:50:34;18.50;99.90
3713;DHT22;1872;51.406;6.856;2023-08-31T07:53:00;18.70;99.90
3713;DHT22;1872;51.406;6.856;2023-08-31T07:55:26;18.90;99.90
3713;DHT22;1872;51.406;6.856;2023-08-31T07:57:52;19.10;99.90
3713;DHT22;1872;51.406;6.856;2023-08-31T08:00:18;19.40;99.90
3713;DHT22;1872;51.406;6.856;2023-08-31T08:02:47;19.60;99.90
3713;DHT22;1872;51.406;6.856;2023-08-31T08:05:12;19.80;99.90
3713;DHT22;1872;51.406;6.856;2023-08-31T08:07:38;19.90;99.90
3713;DHT22;1872;51.406;6.856;2023-08-31T08:10:04;20.10;99.90
3713;DHT22;1872;51.406;6.856;2023-08-31T08:12:43;20.40;99.90
3713;DHT22;1872;51.406;6.856;2023-08-31T08:15:10;20.50;99.90
3713;DHT22;1872;51.406;6.856;2023-08-31T08:17:37;20.60;99.90
3713;DHT22;1872;51.406;6.856;2023-08-31T08:20:04;20.60;99.90
3713;DHT22;1872;51.406;6.856;2023-08-31T08:22:30;20.70;99.90
3713;DHT22;1872;51.406;6.856;2023-08-31T08:24:56;20.80;99.90
3713;DHT22;1872;51.406;6.856;2023-08-31T08:27:21;20.90;99.90
3713;DHT22;1872;51.406;6.856;2023-08-31T08:29:48;21.00;99.90
3713;DHT22;1872;51.406;6.856;2023-08-31T08:32:15;21.00;99.90
3713;DHT22;1872;51.406;6.856;2023-08-31T08:34:41;21.10;99.90
3713;DHT22;1872;51.406;6.856;2023-08-31T08:37:06;21.30;99.90
3713;DHT22;1872;51.406;6.856;2023-08-31T08:39:32;21.30;99.90
3713;DHT22;1872;51.406;6.856;2023-08-31T08:41:58;21.50;99.90
3713;DHT22;1872;51.406;6.856;2023-08-31T08:44:25;21.50;99.90
3713;DHT22;1872;51.406;6.856;2023-08-31T08:46:52;21.60;99.90
3713;DHT22;1872;51.406;6.856;2023-08-31T08:49:19;21.70;99.90
3713;DHT22;1872;51.406;6.856;2023-08-31T08:51:47;21.70;99.90
3713;DHT22;1872;51.406;6.856;2023-08-31T08:54:14;21.70;99.90
3713;DHT22;1872;51.406;6.856;2023-08-31T08:56:39;21.60;99.90
3713;DHT22;1872;51.406;6.856;2023-08-31T08:59:05;21.60;99.90
3713;DHT22;1872;51.406;6.856;2023-08-31T09:01:33;21.50;99.90
3713;DHT22;1872;51.406;6.856;2023-08-31T09:04:00;21.40;99.90
3713;DHT22;1872;51.406;6.856;2023-08-31T09:06:27;21.20;99.90
3713;DHT22;1872;51.406;6.856;2023-08-31T09:08:56;21.20;99.90
3713;DHT22;1872;51.406;6.856;2023-08-31T09:11:23;21.10;99.90
3713;DHT22;1872;51.406;6.856;2023-08-31T09:13:49;21.00;99.90
3713;DHT22;1872;51.406;6.856;2023-08-31T09:16:26;20.90;99.90
3713;DHT22;1872;51.406;6.856;2023-08-31T09:18:54;20.80;99.90
3713;DHT22;1872;51.406;6.856;2023-08-31T09:21:19;20.70;99.90
3713;DHT22;1872;51.406;6.856;2023-08-31T09:23:57;20.60;99.90
3713;DHT22;1872;51.406;6.856;2023-08-31T09:26:23;20.50;99.90
3713;DHT22;1872;51.406;6.856;2023-08-31T09:28:49;20.40;99.90
3713;DHT22;1872;51.406;6.856;2023-08-31T09:31:15;20.40;99.90
3713;DHT22;1872;51.406;6.856;2023-08-31T09:33:50;20.40;99.90
3713;DHT22;1872;51.406;6.856;2023-08-31T09:36:16;20.30;99.90
3713;DHT22;1872;51.406;6.856;2023-08-31T09:38:43;20.40;99.90
3713;DHT22;1872;51.406;6.856;2023-08-31T09:41:09;20.40;99.90
3713;DHT22;1872;51.406;6.856;2023-08-31T09:43:34;20.30;99.90
3713;DHT22;1872;51.406;6.856;2023-08-31T09:46:03;20.30;99.90
3713;DHT22;1872;51.406;6.856;2023-08-31T09:48:30;20.20;99.90
3713;DHT22;1872;51.406;6.856;2023-08-31T09:50:56;20.20;99.90
3713;DHT22;1872;51.406;6.856;2023-08-31T09:53:24;20.10;99.90
3713;DHT22;1872;51.406;6.856;2023-08-31T09:55:51;20.10;99.90
3713;DHT22;1872;51.406;6.856;2023-08-31T09:58:21;20.00;99.90
3713;DHT22;1872;51.406;6.856;2023-08-31T10:00:48;19.90;99.90
3713;DHT22;1872;51.406;6.856;2023-08-31T10:03:14;19.90;99.90
3713;DHT22;1872;51.406;6.856;2023-08-31T10:05:43;19.80;99.90
3713;DHT22;1872;51.406;6.856;2023-08-31T10:08:09;19.70;99.90
3713;DHT22;1872;51.406;6.856;2023-08-31T10:10:35;19.60;99.90
3713;DHT22;1872;51.406;6.856;2023-08-31T10:13:03;19.60;99.90
3713;DHT22;1872;51.406;6.856;2023-08-31T10:15:32;19.60;99.90
3713;DHT22;1872;51.406;6.856;2023-08-31T10:18:00;19.60;99.90
3713;DHT22;1872;51.406;6.856;2023-08-31T10:20:26;19.60;99.90
3713;DHT22;1872;51.406;6.856;2023-08-31T10:23:06;19.60;99.90
3713;DHT22;1872;51.406;6.856;2023-08-31T10:28:23;19.60;99.90
3713;DHT22;1872;51.406;6.856;2023-08-31T10:31:16;19.60;99.90
3713;DHT22;1872;51.406;6.856;2023-08-31T10:34:02;19.70;99.90
3713;DHT22;1872;51.406;6.856;2023-08-31T10:36:39;19.70;99.90
3713;DHT22;1872;51.406;6.856;2023-08-31T10:39:16;19.60;99.90
3713;DHT22;1872;51.406;6.856;2023-08-31T10:41:42;19.50;99.90
3713;DHT22;1872;51.406;6.856;2023-08-31T10:44:21;19.40;99.90
3713;DHT22;1872;51.406;6.856;2023-08-31T10:46:48;19.30;99.90
3713;DHT22;1872;51.406;6.856;2023-08-31T10:49:15;19.20;99.90
3713;DHT22;1872;51.406;6.856;2023-08-31T10:51:47;19.20;99.90
3713;DHT22;1872;51.406;6.856;2023-08-31T10:54:26;19.20;99.90
3713;DHT22;1872;51.406;6.856;2023-08-31T10:57:01;19.20;99.90
3713;DHT22;1872;51.406;6.856;2023-08-31T10:59:51;19.20;99.90
3713;DHT22;1872;51.406;6.856;2023-08-31T11:05:09;19.20;99.90
3713;DHT22;1872;51.406;6.856;2023-08-31T11:07:37;19.30;99.90
3713;DHT22;1872;51.406;6.856;2023-08-31T11:10:21;19.30;99.90
3713;DHT22;1872;51.406;6.856;2023-08-31T11:12:50;19.40;99.90
3713;DHT22;1872;51.406;6.856;2023-08-31T11:15:19;19.40;99.90
3713;DHT22;1872;51.406;6.856;2023-08-31T11:17:46;19.60;99.90
3713;DHT22;1872;51.406;6.856;2023-08-31T11:20:14;19.60;99.90
3713;DHT22;1872;51.406;6.856;2023-08-31T11:22:45;19.50;99.90
3713;DHT22;1872;51.406;6.856;2023-08-31T11:25:12;19.40;99.90
3713;DHT22;1872;51.406;6.856;2023-08-31T11:27:39;19.30;99.90
3713;DHT22;1872;51.406;6.856;2023-08-31T11:30:15;19.20;99.90
3713;DHT22;1872;51.406;6.856;2023-08-31T11:32:47;19.00;99.90
3713;DHT22;1872;51.406;6.856;2023-08-31T11:38:35;18.90;99.90
3713;DHT22;1872;51.406;6.856;2023-08-31T11:41:01;18.80;99.90
3713;DHT22;1872;51.406;6.856;2023-08-31T11:43:27;18.80;99.90
3713;DHT22;1872;51.406;6.856;2023-08-31T11:45:52;18.90;99.90
3713;DHT22;1872;51.406;6.856;2023-08-31T11:48:18;18.90;99.90
3713;DHT22;1872;51.406;6.856;2023-08-31T11:50:44;18.90;99.90
3713;DHT22;1872;51.406;6.856;2023-08-31T11:53:11;18.80;99.90
3713;DHT22;1872;51.406;6.856;2023-08-31T11:55:49;18.80;99.90
3713;DHT22;1872;51.406;6.856;2023-08-31T11:58:15;18.90;99.90
3713;DHT22;1872;51.406;6.856;2023-08-31T12:00:43;18.90;99.90
3713;DHT22;1872;51.406;6.856;2023-08-31T12:03:10;19.00;99.90
3713;DHT22;1872;51.406;6.856;2023-08-31T12:05:50;19.00;99.90
3713;DHT22;1872;51.406;6.856;2023-08-31T12:08:24;19.10;99.90
3713;DHT22;1872;51.406;6.856;2023-08-31T12:10:51;19.10;99.90
3713;DHT22;1872;51.406;6.856;2023-08-31T12:13:17;19.10;99.90
3713;DHT22;1872;51.406;6.856;2023-08-31T12:15:43;19.10;99.90
3713;DHT22;1872;51.406;6.856;2023-08-31T12:18:12;19.10;99.90
3713;DHT22;1872;51.406;6.856;2023-08-31T12:20:54;19.20;99.90
3713;DHT22;1872;51.406;6.856;2023-08-31T12:23:20;19.20;99.90
3713;DHT22;1872;51.406;6.856;2023-08-31T12:25:55;19.30;99.90
3713;DHT22;1872;51.406;6.856;2023-08-31T12:28:22;19.30;99.90
3713;DHT22;1872;51.406;6.856;2023-08-31T12:30:52;19.20;99.90
3713;DHT22;1872;51.406;6.856;2023-08-31T12:33:19;19.20;99.90
3713;DHT22;1872;51.406;6.856;2023-08-31T12:35:47;19.20;99.90
3713;DHT22;1872;51.406;6.856;2023-08-31T12:38:14;19.20;99.90
3713;DHT22;1872;51.406;6.856;2023-08-31T12:40:40;19.20;99.90
3713;DHT22;1872;51.406;6.856;2023-08-31T12:43:06;19.20;99.90
3713;DHT22;1872;51.406;6.856;2023-08-31T12:45:32;19.20;99.90
3713;DHT22;1872;51.406;6.856;2023-08-31T12:48:00;19.30;99.90
3713;DHT22;1872;51.406;6.856;2023-08-31T12:50:25;19.30;99.90
3713;DHT22;1872;51.406;6.856;2023-08-31T12:52:51;19.40;99.90
3713;DHT22;1872;51.406;6.856;2023-08-31T12:55:17;19.40;99.90
3713;DHT22;1872;51.406;6.856;2023-08-31T12:57:43;19.40;99.90
3713;DHT22;1872;51.406;6.856;2023-08-31T13:00:10;19.50;99.90
3713;DHT22;1872;51.406;6.856;2023-08-31T13:02:42;19.50;99.90
3713;DHT22;1872;51.406;6.856;2023-08-31T13:05:09;19.50;99.90
3713;DHT22;1872;51.406;6.856;2023-08-31T13:07:36;19.50;99.90
3713;DHT22;1872;51.406;6.856;2023-08-31T13:10:03;19.60;99.90
3713;DHT22;1872;51.406;6.856;2023-08-31T13:12:33;19.70;99.90
3713;DHT22;1872;51.406;6.856;2023-08-31T13:14:59;19.70;99.90
3713;DHT22;1872;51.406;6.856;2023-08-31T13:17:25;19.70;99.90
3713;DHT22;1872;51.406;6.856;2023-08-31T13:19:55;19.80;99.90
3713;DHT22;1872;51.406;6.856;2023-08-31T13:22:23;19.80;99.90
3713;DHT22;1872;51.406;6.856;2023-08-31T13:24:49;19.80;99.90
3713;DHT22;1872;51.406;6.856;2023-08-31T13:27:15;19.90;99.90
3713;DHT22;1872;51.406;6.856;2023-08-31T13:30:09;19.90;99.90
3713;DHT22;1872;51.406;6.856;2023-08-31T13:32:35;19.90;99.90
3713;DHT22;1872;51.406;6.856;2023-08-31T13:35:01;20.00;99.90
3713;DHT22;1872;51.406;6.856;2023-08-31T13:37:26;19.90;99.90
3713;DHT22;1872;51.406;6.856;2023-08-31T13:39:52;19.90;99.90
3713;DHT22;1872;51.406;6.856;2023-08-31T13:42:20;19.90;99.90
3713;DHT22;1872;51.406;6.856;2023-08-31T13:44:46;19.90;99.90
3713;DHT22;1872;51.406;6.856;2023-08-31T13:47:12;19.90;99.90
3713;DHT22;1872;51.406;6.856;2023-08-31T13:49:38;19.80;99.90
3713;DHT22;1872;51.406;6.856;2023-08-31T13:52:04;19.80;99.90
3713;DHT22;1872;51.406;6.856;2023-08-31T13:54:33;19.70;99.90
3713;DHT22;1872;51.406;6.856;2023-08-31T13:56:59;19.70;99.90
3713;DHT22;1872;51.406;6.856;2023-08-31T13:59:25;19.70;99.90
3713;DHT22;1872;51.406;6.856;2023-08-31T14:01:53;19.70;99.90
3713;DHT22;1872;51.406;6.856;2023-08-31T14:04:19;19.70;99.90
3713;DHT22;1872;51.406;6.856;2023-08-31T14:06:45;19.80;99.90
3713;DHT22;1872;51.406;6.856;2023-08-31T14:09:11;19.80;99.90
3713;DHT22;1872;51.406;6.856;2023-08-31T14:11:37;19.70;99.90
3713;DHT22;1872;51.406;6.856;2023-08-31T14:14:06;19.70;99.90
3713;DHT22;1872;51.406;6.856;2023-08-31T14:16:36;19.70;99.90
3713;DHT22;1872;51.406;6.856;2023-08-31T14:19:06;19.60;99.90
3713;DHT22;1872;51.406;6.856;2023-08-31T14:21:32;19.50;99.90
3713;DHT22;1872;51.406;6.856;2023-08-31T14:23:58;19.50;99.90
3713;DHT22;1872;51.406;6.856;2023-08-31T14:26:24;19.30;99.90
3713;DHT22;1872;51.406;6.856;2023-08-31T14:28:51;19.10;99.90
3713;DHT22;1872;51.406;6.856;2023-08-31T14:31:17;18.90;99.90
3713;DHT22;1872;51.406;6.856;2023-08-31T14:33:43;18.70;99.90
3713;DHT22;1872;51.406;6.856;2023-08-31T14:36:10;18.40;99.90
3713;DHT22;1872;51.406;6.856;2023-08-31T14:38:36;18.20;99.90
3713;DHT22;1872;51.406;6.856;2023-08-31T14:41:01;18.00;99.90
3713;DHT22;1872;51.406;6.856;2023-08-31T14:43:27;17.90;99.90
3713;DHT22;1872;51.406;6.856;2023-08-31T14:45:53;17.70;99.90
3713;DHT22;1872;51.406;6.856;2023-08-31T14:48:18;17.70;99.90
3713;DHT22;1872;51.406;6.856;2023-08-31T14:50:44;17.70;99.90
3713;DHT22;1872;51.406;6.856;2023-08-31T14:53:10;17.70;99.90
3713;DHT22;1872;51.406;6.856;2023-08-31T14:55:36;17.70;99.90
3713;DHT22;1872;51.406;6.856;2023-08-31T14:58:04;17.70;99.90
3713;DHT22;1872;51.406;6.856;2023-08-31T15:00:30;17.80;99.90
3713;DHT22;1872;51.406;6.856;2023-08-31T15:02:56;17.70;99.90
3713;DHT22;1872;51.406;6.856;2023-08-31T15:05:22;17.70;99.90
3713;DHT22;1872;51.406;6.856;2023-08-31T15:07:51;17.70;99.90
3713;DHT22;1872;51.406;6.856;2023-08-31T15:10:16;17.70;99.90
3713;DHT22;1872;51.406;6.856;2023-08-31T15:12:43;17.70;99.90
3713;DHT22;1872;51.406;6.856;2023-08-31T15:21:53;17.60;99.90
3713;DHT22;1872;51.406;6.856;2023-08-31T15:24:18;17.50;99.90
3713;DHT22;1872;51.406;6.856;2023-08-31T15:26:44;17.50;99.90
3713;DHT22;1872;51.406;6.856;2023-08-31T15:29:10;17.50;99.90
3713;DHT22;1872;51.406;6.856;2023-08-31T15:31:36;17.40;99.90
3713;DHT22;1872;51.406;6.856;2023-08-31T15:34:04;17.40;99.90
3713;DHT22;1872;51.406;6.856;2023-08-31T15:36:31;17.40;99.90
3713;DHT22;1872;51.406;6.856;2023-08-31T15:38:57;17.40;99.90
3713;DHT22;1872;51.406;6.856;2023-08-31T15:41:22;17.40;99.90
3713;DHT22;1872;51.406;6.856;2023-08-31T15:43:48;17.40;99.90
3713;DHT22;1872;51.406;6.856;2023-08-31T15:46:16;17.40;99.90
3713;DHT22;1872;51.406;6.856;2023-08-31T15:48:41;17.40;99.90
3713;DHT22;1872;51.406;6.856;2023-08-31T15:51:08;17.40;99.90
3713;DHT22;1872;51.406;6.856;2023-08-31T15:53:34;17.40;99.90
3713;DHT22;1872;51.406;6.856;2023-08-31T15:56:01;17.40;99.90
3713;DHT22;1872;51.406;6.856;2023-08-31T15:58:27;17.40;99.90
3713;DHT22;1872;51.406;6.856;2023-08-31T16:00:55;17.40;99.90
3713;DHT22;1872;51.406;6.856;2023-08-31T16:03:27;17.40;99.90
3713;DHT22;1872;51.406;6.856;2023-08-31T16:05:53;17.40;99.90
3713;DHT22;1872;51.406;6.856;2023-08-31T16:08:19;17.40;99.90
3713;DHT22;1872;51.406;6.856;2023-08-31T16:10:44;17.30;99.90
3713;DHT22;1872;51.406;6.856;2023-08-31T16:13:10;17.30;99.90
3713;DHT22;1872;51.406;6.856;2023-08-31T16:15:36;17.20;99.90
3713;DHT22;1872;51.406;6.856;2023-08-31T16:18:01;17.20;99.90
3713;DHT22;1872;51.406;6.856;2023-08-31T16:20:27;17.00;99.90
3713;DHT22;1872;51.406;6.856;2023-08-31T16:22:53;16.90;99.90
3713;DHT22;1872;51.406;6.856;2023-08-31T16:25:19;16.80;99.90
3713;DHT22;1872;51.406;6.856;2023-08-31T16:33:59;16.60;99.90
3713;DHT22;1872;51.406;6.856;2023-08-31T16:43:09;16.60;99.90